sensor_id;sensor_type;location;lat;lon;timestamp;P1;durP1;ratioP1;P2;durP2;ratioP2
4895;SDS011;2463;49.948;8.472;2022-11-18T00:01:14;96.07;;;8.10;;
4895;SDS011;2463;49.948;8.472;2022-11-18T00:03:43;104.43;;;9.40;;
4895;SDS011;2463;49.948;8.472;2022-11-18T00:06:10;99.38;;;9.00;;
4895;SDS011;2463;49.948;8.472;2022-11-18T00:08:48;101.88;;;9.27;;
4895;SDS011;2463;49.948;8.472;2022-11-18T00:11:15;102.97;;;8.48;;
4895;SDS011;2463;49.948;8.472;2022-11-18T00:14:15;100.28;;;9.25;;
4895;SDS011;2463;49.948;8.472;2022-11-18T00:16:56;100.10;;;8.98;;
4895;SDS011;2463;49.948;8.472;2022-11-18T00:19:27;98.25;;;9.10;;
4895;SDS011;2463;49.948;8.472;2022-11-18T00:22:05;103.50;;;9.60;;
4895;SDS011;2463;49.948;8.472;2022-11-18T00:24:33;100.18;;;9.15;;
4895;SDS011;2463;49.948;8.472;2022-11-18T00:26:59;100.45;;;8.93;;
4895;SDS011;2463;49.948;8.472;2022-11-18T00:29:26;100.63;;;10.27;;
4895;SDS011;2463;49.948;8.472;2022-11-18T00:31:54;104.07;;;10.38;;
4895;SDS011;2463;49.948;8.472;2022-11-18T00:34:21;103.07;;;10.80;;
4895;SDS011;2463;49.948;8.472;2022-11-18T00:36:48;99.68;;;9.57;;
4895;SDS011;2463;49.948;8.472;2022-11-18T00:39:16;107.50;;;9.77;;
4895;SDS011;2463;49.948;8.472;2022-11-18T00:41:45;102.15;;;10.55;;
4895;SDS011;2463;49.948;8.472;2022-11-18T00:44:30;101.28;;;10.70;;
4895;SDS011;2463;49.948;8.472;2022-11-18T00:46:57;101.32;;;10.95;;
4895;SDS011;2463;49.948;8.472;2022-11-18T00:49:24;104.82;;;11.15;;
4895;SDS011;2463;49.948;8.472;2022-11-18T00:51:50;100.03;;;10.90;;
4895;SDS011;2463;49.948;8.472;2022-11-18T00:54:17;103.78;;;12.25;;
4895;SDS011;2463;49.948;8.472;2022-11-18T00:56:44;102.10;;;11.68;;
4895;SDS011;2463;49.948;8.472;2022-11-18T00:59:11;116.07;;;11.40;;
4895;SDS011;2463;49.948;8.472;2022-11-18T01:01:37;103.53;;;11.88;;
4895;SDS011;2463;49.948;8.472;2022-11-18T01:04:04;122.82;;;12.90;;
4895;SDS011;2463;49.948;8.472;2022-11-18T01:06:31;104.43;;;11.55;;
4895;SDS011;2463;49.948;8.472;2022-11-18T01:08:57;101.55;;;11.15;;
4895;SDS011;2463;49.948;8.472;2022-11-18T01:11:24;105.00;;;13.30;;
4895;SDS011;2463;49.948;8.472;2022-11-18T01:14:09;106.28;;;11.98;;
4895;SDS011;2463;49.948;8.472;2022-11-18T01:16:36;108.07;;;13.50;;
4895;SDS011;2463;49.948;8.472;2022-11-18T01:19:03;101.05;;;11.52;;
4895;SDS011;2463;49.948;8.472;2022-11-18T01:21:29;105.15;;;12.70;;
4895;SDS011;2463;49.948;8.472;2022-11-18T01:23:59;105.18;;;11.98;;
4895;SDS011;2463;49.948;8.472;2022-11-18T01:26:26;106.25;;;12.70;;
4895;SDS011;2463;49.948;8.472;2022-11-18T01:28:55;105.10;;;11.10;;
4895;SDS011;2463;49.948;8.472;2022-11-18T01:31:25;106.50;;;11.50;;
4895;SDS011;2463;49.948;8.472;2022-11-18T01:33:52;106.93;;;12.20;;
4895;SDS011;2463;49.948;8.472;2022-11-18T01:36:19;112.22;;;12.13;;
4895;SDS011;2463;49.948;8.472;2022-11-18T01:38:48;103.22;;;11.32;;
4895;SDS011;2463;49.948;8.472;2022-11-18T01:41:17;103.45;;;11.63;;
4895;SDS011;2463;49.948;8.472;2022-11-18T01:43:50;104.47;;;11.10;;
4895;SDS011;2463;49.948;8.472;2022-11-18T01:46:17;103.07;;;11.50;;
4895;SDS011;2463;49.948;8.472;2022-11-18T01:48:45;105.15;;;11.75;;
4895;SDS011;2463;49.948;8.472;2022-11-18T01:51:16;103.78;;;11.38;;
4895;SDS011;2463;49.948;8.472;2022-11-18T01:53:49;103.40;;;11.27;;
4895;SDS011;2463;49.948;8.472;2022-11-18T01:56:20;102.07;;;11.65;;
4895;SDS011;2463;49.948;8.472;2022-11-18T01:58:53;100.68;;;9.75;;
4895;SDS011;2463;49.948;8.472;2022-11-18T02:01:22;107.50;;;12.27;;
4895;SDS011;2463;49.948;8.472;2022-11-18T02:03:50;101.70;;;11.05;;
4895;SDS011;2463;49.948;8.472;2022-11-18T02:06:18;105.80;;;10.80;;
4895;SDS011;2463;49.948;8.472;2022-11-18T02:08:46;100.78;;;10.27;;
4895;SDS011;2463;49.948;8.472;2022-11-18T02:11:14;103.90;;;10.43;;
4895;SDS011;2463;49.948;8.472;2022-11-18T02:14:03;103.70;;;11.63;;
4895;SDS011;2463;49.948;8.472;2022-11-18T02:34:27;102.43;;;10.48;;
4895;SDS011;2463;49.948;8.472;2022-11-18T02:37:19;102.03;;;10.38;;
4895;SDS011;2463;49.948;8.472;2022-11-18T02:40:35;100.63;;;10.77;;
4895;SDS011;2463;49.948;8.472;2022-11-18T02:42:51;104.32;;;10.27;;
4895;SDS011;2463;49.948;8.472;2022-11-18T02:45:21;104.60;;;11.55;;
4895;SDS011;2463;49.948;8.472;2022-11-18T02:47:49;101.22;;;11.30;;
4895;SDS011;2463;49.948;8.472;2022-11-18T02:50:19;104.15;;;10.55;;
4895;SDS011;2463;49.948;8.472;2022-11-18T02:52:50;106.13;;;11.00;;
4895;SDS011;2463;49.948;8.472;2022-11-18T02:55:21;105.03;;;11.05;;
4895;SDS011;2463;49.948;8.472;2022-11-18T02:57:51;101.93;;;10.85;;
4895;SDS011;2463;49.948;8.472;2022-11-18T03:00:18;109.13;;;11.00;;
4895;SDS011;2463;49.948;8.472;2022-11-18T03:02:46;106.35;;;10.82;;
4895;SDS011;2463;49.948;8.472;2022-11-18T03:05:18;105.25;;;11.50;;
4895;SDS011;2463;49.948;8.472;2022-11-18T03:08:12;102.95;;;12.13;;
4895;SDS011;2463;49.948;8.472;2022-11-18T03:10:48;117.68;;;13.63;;
4895;SDS011;2463;49.948;8.472;2022-11-18T03:16:31;107.07;;;12.25;;
4895;SDS011;2463;49.948;8.472;2022-11-18T03:19:16;104.80;;;11.55;;
4895;SDS011;2463;49.948;8.472;2022-11-18T03:24:43;107.13;;;12.45;;
4895;SDS011;2463;49.948;8.472;2022-11-18T03:27:35;101.68;;;11.30;;
4895;SDS011;2463;49.948;8.472;2022-11-18T03:30:07;111.03;;;10.95;;
4895;SDS011;2463;49.948;8.472;2022-11-18T03:32:38;102.93;;;11.00;;
4895;SDS011;2463;49.948;8.472;2022-11-18T03:35:09;101.43;;;10.85;;
4895;SDS011;2463;49.948;8.472;2022-11-18T03:37:40;103.43;;;11.73;;
4895;SDS011;2463;49.948;8.472;2022-11-18T03:40:16;101.47;;;10.98;;
4895;SDS011;2463;49.948;8.472;2022-11-18T03:42:50;101.38;;;10.10;;
4895;SDS011;2463;49.948;8.472;2022-11-18T03:45:23;108.65;;;11.57;;
4895;SDS011;2463;49.948;8.472;2022-11-18T03:47:56;101.00;;;11.30;;
4895;SDS011;2463;49.948;8.472;2022-11-18T03:50:28;102.30;;;11.32;;
4895;SDS011;2463;49.948;8.472;2022-11-18T03:52:58;106.82;;;12.45;;
4895;SDS011;2463;49.948;8.472;2022-11-18T03:55:35;103.43;;;12.27;;
4895;SDS011;2463;49.948;8.472;2022-11-18T04:00:55;105.45;;;12.45;;
4895;SDS011;2463;49.948;8.472;2022-11-18T04:03:26;105.70;;;11.93;;
4895;SDS011;2463;49.948;8.472;2022-11-18T04:05:55;105.60;;;12.13;;
4895;SDS011;2463;49.948;8.472;2022-11-18T04:08:31;109.20;;;12.30;;
4895;SDS011;2463;49.948;8.472;2022-11-18T04:11:10;103.30;;;10.85;;
4895;SDS011;2463;49.948;8.472;2022-11-18T04:14:02;103.32;;;11.15;;
4895;SDS011;2463;49.948;8.472;2022-11-18T04:16:41;101.00;;;10.90;;
4895;SDS011;2463;49.948;8.472;2022-11-18T04:19:09;103.53;;;11.00;;
4895;SDS011;2463;49.948;8.472;2022-11-18T04:21:36;101.63;;;11.13;;
4895;SDS011;2463;49.948;8.472;2022-11-18T04:24:02;101.90;;;11.00;;
4895;SDS011;2463;49.948;8.472;2022-11-18T04:26:29;106.85;;;12.65;;
4895;SDS011;2463;49.948;8.472;2022-11-18T04:28:56;107.15;;;12.02;;
4895;SDS011;2463;49.948;8.472;2022-11-18T04:31:23;105.25;;;11.95;;
4895;SDS011;2463;49.948;8.472;2022-11-18T04:33:50;105.28;;;13.07;;
4895;SDS011;2463;49.948;8.472;2022-11-18T04:36:16;102.38;;;11.02;;
4895;SDS011;2463;49.948;8.472;2022-11-18T04:38:44;105.50;;;12.15;;
4895;SDS011;2463;49.948;8.472;2022-11-18T04:41:11;108.15;;;12.38;;
4895;SDS011;2463;49.948;8.472;2022-11-18T04:43:38;104.80;;;12.55;;
4895;SDS011;2463;49.948;8.472;2022-11-18T04:46:05;104.90;;;11.40;;
4895;SDS011;2463;49.948;8.472;2022-11-18T04:48:32;103.28;;;11.80;;
4895;SDS011;2463;49.948;8.472;2022-11-18T04:51:07;105.40;;;12.07;;
4895;SDS011;2463;49.948;8.472;2022-11-18T04:53:34;104.97;;;11.90;;
4895;SDS011;2463;49.948;8.472;2022-11-18T04:56:04;111.30;;;12.60;;
4895;SDS011;2463;49.948;8.472;2022-11-18T04:58:32;106.72;;;12.20;;
4895;SDS011;2463;49.948;8.472;2022-11-18T05:00:59;105.30;;;12.77;;
4895;SDS011;2463;49.948;8.472;2022-11-18T05:03:25;110.28;;;12.48;;
4895;SDS011;2463;49.948;8.472;2022-11-18T05:05:52;112.00;;;13.30;;
4895;SDS011;2463;49.948;8.472;2022-11-18T05:08:19;107.28;;;11.93;;
4895;SDS011;2463;49.948;8.472;2022-11-18T05:10:45;105.93;;;12.18;;
4895;SDS011;2463;49.948;8.472;2022-11-18T05:13:12;108.05;;;12.23;;
4895;SDS011;2463;49.948;8.472;2022-11-18T05:15:38;107.80;;;12.40;;
4895;SDS011;2463;49.948;8.472;2022-11-18T05:18:05;104.47;;;11.57;;
4895;SDS011;2463;49.948;8.472;2022-11-18T05:20:36;108.75;;;12.82;;
4895;SDS011;2463;49.948;8.472;2022-11-18T05:23:07;111.07;;;13.68;;
4895;SDS011;2463;49.948;8.472;2022-11-18T05:25:34;108.28;;;13.70;;
4895;SDS011;2463;49.948;8.472;2022-11-18T05:28:01;110.18;;;13.88;;
4895;SDS011;2463;49.948;8.472;2022-11-18T05:30:28;106.63;;;13.18;;
4895;SDS011;2463;49.948;8.472;2022-11-18T05:32:54;111.25;;;12.82;;
4895;SDS011;2463;49.948;8.472;2022-11-18T05:35:21;106.95;;;12.02;;
4895;SDS011;2463;49.948;8.472;2022-11-18T05:37:47;112.72;;;12.63;;
4895;SDS011;2463;49.948;8.472;2022-11-18T05:40:14;114.70;;;13.60;;
4895;SDS011;2463;49.948;8.472;2022-11-18T05:42:41;116.78;;;15.73;;
4895;SDS011;2463;49.948;8.472;2022-11-18T05:45:26;114.30;;;14.00;;
4895;SDS011;2463;49.948;8.472;2022-11-18T05:47:53;111.20;;;13.63;;
4895;SDS011;2463;49.948;8.472;2022-11-18T05:50:25;110.07;;;12.55;;
4895;SDS011;2463;49.948;8.472;2022-11-18T05:52:52;107.43;;;13.20;;
4895;SDS011;2463;49.948;8.472;2022-11-18T05:55:18;109.13;;;13.52;;
4895;SDS011;2463;49.948;8.472;2022-11-18T05:57:47;109.53;;;13.65;;
4895;SDS011;2463;49.948;8.472;2022-11-18T06:00:14;108.75;;;13.55;;
4895;SDS011;2463;49.948;8.472;2022-11-18T06:02:41;108.85;;;14.18;;
4895;SDS011;2463;49.948;8.472;2022-11-18T06:05:10;107.25;;;13.43;;
4895;SDS011;2463;49.948;8.472;2022-11-18T06:07:41;110.47;;;13.55;;
4895;SDS011;2463;49.948;8.472;2022-11-18T06:10:11;115.35;;;14.30;;
4895;SDS011;2463;49.948;8.472;2022-11-18T06:12:42;112.38;;;13.73;;
4895;SDS011;2463;49.948;8.472;2022-11-18T06:15:23;113.13;;;15.05;;
4895;SDS011;2463;49.948;8.472;2022-11-18T06:17:55;111.68;;;14.73;;
4895;SDS011;2463;49.948;8.472;2022-11-18T06:20:35;115.50;;;16.13;;
4895;SDS011;2463;49.948;8.472;2022-11-18T06:23:04;112.20;;;14.13;;
4895;SDS011;2463;49.948;8.472;2022-11-18T06:25:30;111.20;;;14.63;;
4895;SDS011;2463;49.948;8.472;2022-11-18T06:27:58;120.03;;;14.68;;
4895;SDS011;2463;49.948;8.472;2022-11-18T06:30:26;115.60;;;15.20;;
4895;SDS011;2463;49.948;8.472;2022-11-18T06:32:53;117.13;;;14.35;;
4895;SDS011;2463;49.948;8.472;2022-11-18T06:35:20;118.95;;;15.27;;
4895;SDS011;2463;49.948;8.472;2022-11-18T06:37:46;113.25;;;14.88;;
4895;SDS011;2463;49.948;8.472;2022-11-18T06:40:13;113.93;;;15.98;;
4895;SDS011;2463;49.948;8.472;2022-11-18T06:42:40;113.95;;;15.75;;
4895;SDS011;2463;49.948;8.472;2022-11-18T06:45:25;116.53;;;15.00;;
4895;SDS011;2463;49.948;8.472;2022-11-18T06:47:55;112.90;;;14.20;;
4895;SDS011;2463;49.948;8.472;2022-11-18T06:50:23;111.72;;;15.07;;
4895;SDS011;2463;49.948;8.472;2022-11-18T06:52:49;112.70;;;14.65;;
4895;SDS011;2463;49.948;8.472;2022-11-18T06:55:16;114.18;;;14.98;;
4895;SDS011;2463;49.948;8.472;2022-11-18T06:57:43;118.20;;;14.55;;
4895;SDS011;2463;49.948;8.472;2022-11-18T07:00:09;109.25;;;14.85;;
4895;SDS011;2463;49.948;8.472;2022-11-18T07:02:37;111.85;;;14.48;;
4895;SDS011;2463;49.948;8.472;2022-11-18T07:05:04;110.88;;;14.60;;
4895;SDS011;2463;49.948;8.472;2022-11-18T07:07:33;116.85;;;16.05;;
4895;SDS011;2463;49.948;8.472;2022-11-18T07:10:07;111.38;;;13.80;;
4895;SDS011;2463;49.948;8.472;2022-11-18T07:12:34;107.50;;;11.88;;
4895;SDS011;2463;49.948;8.472;2022-11-18T07:15:01;107.10;;;12.45;;
4895;SDS011;2463;49.948;8.472;2022-11-18T07:17:28;106.85;;;12.68;;
4895;SDS011;2463;49.948;8.472;2022-11-18T07:19:56;103.50;;;10.32;;
4895;SDS011;2463;49.948;8.472;2022-11-18T07:22:23;105.65;;;9.90;;
4895;SDS011;2463;49.948;8.472;2022-11-18T07:24:49;100.75;;;9.43;;
4895;SDS011;2463;49.948;8.472;2022-11-18T07:27:16;100.57;;;9.63;;
4895;SDS011;2463;49.948;8.472;2022-11-18T07:29:42;103.38;;;9.80;;
4895;SDS011;2463;49.948;8.472;2022-11-18T07:32:09;99.35;;;8.68;;
4895;SDS011;2463;49.948;8.472;2022-11-18T07:34:36;100.07;;;9.48;;
4895;SDS011;2463;49.948;8.472;2022-11-18T07:37:03;97.97;;;8.45;;
4895;SDS011;2463;49.948;8.472;2022-11-18T07:39:29;101.55;;;8.85;;
4895;SDS011;2463;49.948;8.472;2022-11-18T07:41:56;97.55;;;7.80;;
4895;SDS011;2463;49.948;8.472;2022-11-18T07:44:22;96.43;;;7.50;;
4895;SDS011;2463;49.948;8.472;2022-11-18T07:46:49;100.80;;;8.10;;
4895;SDS011;2463;49.948;8.472;2022-11-18T07:49:16;95.50;;;7.85;;
4895;SDS011;2463;49.948;8.472;2022-11-18T07:51:43;105.05;;;9.43;;
4895;SDS011;2463;49.948;8.472;2022-11-18T07:54:10;99.93;;;7.90;;
4895;SDS011;2463;49.948;8.472;2022-11-18T07:56:38;97.55;;;7.85;;
4895;SDS011;2463;49.948;8.472;2022-11-18T07:59:06;96.22;;;7.82;;
4895;SDS011;2463;49.948;8.472;2022-11-18T08:01:33;96.72;;;7.25;;
4895;SDS011;2463;49.948;8.472;2022-11-18T08:04:10;95.80;;;6.70;;
4895;SDS011;2463;49.948;8.472;2022-11-18T08:06:37;99.78;;;8.00;;
4895;SDS011;2463;49.948;8.472;2022-11-18T08:09:04;99.40;;;7.10;;
4895;SDS011;2463;49.948;8.472;2022-11-18T08:11:32;94.68;;;6.70;;
4895;SDS011;2463;49.948;8.472;2022-11-18T08:13:59;93.55;;;6.32;;
4895;SDS011;2463;49.948;8.472;2022-11-18T08:16:26;95.82;;;6.90;;
4895;SDS011;2463;49.948;8.472;2022-11-18T08:18:53;93.82;;;6.15;;
4895;SDS011;2463;49.948;8.472;2022-11-18T08:21:21;97.05;;;6.40;;
4895;SDS011;2463;49.948;8.472;2022-11-18T08:23:49;95.65;;;6.63;;
4895;SDS011;2463;49.948;8.472;2022-11-18T08:26:16;94.68;;;6.20;;
4895;SDS011;2463;49.948;8.472;2022-11-18T08:28:44;93.85;;;6.57;;
4895;SDS011;2463;49.948;8.472;2022-11-18T08:31:12;94.40;;;6.15;;
4895;SDS011;2463;49.948;8.472;2022-11-18T08:33:41;94.35;;;6.13;;
4895;SDS011;2463;49.948;8.472;2022-11-18T08:36:09;97.13;;;5.88;;
4895;SDS011;2463;49.948;8.472;2022-11-18T08:38:40;93.50;;;5.88;;
4895;SDS011;2463;49.948;8.472;2022-11-18T08:41:09;92.43;;;5.10;;
4895;SDS011;2463;49.948;8.472;2022-11-18T08:43:40;93.95;;;5.68;;
4895;SDS011;2463;49.948;8.472;2022-11-18T08:46:07;92.05;;;5.07;;
4895;SDS011;2463;49.948;8.472;2022-11-18T08:48:33;91.80;;;4.93;;
4895;SDS011;2463;49.948;8.472;2022-11-18T08:51:00;95.00;;;5.70;;
4895;SDS011;2463;49.948;8.472;2022-11-18T08:53:27;91.97;;;5.18;;
4895;SDS011;2463;49.948;8.472;2022-11-18T08:55:55;92.97;;;5.30;;
4895;SDS011;2463;49.948;8.472;2022-11-18T08:58:25;92.82;;;5.30;;
4895;SDS011;2463;49.948;8.472;2022-11-18T09:00:52;91.97;;;5.15;;
4895;SDS011;2463;49.948;8.472;2022-11-18T09:03:19;91.97;;;5.10;;
4895;SDS011;2463;49.948;8.472;2022-11-18T09:05:46;92.13;;;5.15;;
4895;SDS011;2463;49.948;8.472;2022-11-18T09:08:13;92.20;;;5.30;;
4895;SDS011;2463;49.948;8.472;2022-11-18T09:10:41;93.50;;;5.38;;
4895;SDS011;2463;49.948;8.472;2022-11-18T09:13:08;93.22;;;5.03;;
4895;SDS011;2463;49.948;8.472;2022-11-18T09:15:56;91.53;;;4.60;;
4895;SDS011;2463;49.948;8.472;2022-11-18T09:18:24;94.28;;;5.10;;
4895;SDS011;2463;49.948;8.472;2022-11-18T09:20:54;93.95;;;5.40;;
4895;SDS011;2463;49.948;8.472;2022-11-18T09:23:22;95.60;;;5.05;;
4895;SDS011;2463;49.948;8.472;2022-11-18T09:25:55;91.50;;;4.68;;
4895;SDS011;2463;49.948;8.472;2022-11-18T09:28:33;92.57;;;4.90;;
4895;SDS011;2463;49.948;8.472;2022-11-18T09:31:03;92.82;;;4.55;;
4895;SDS011;2463;49.948;8.472;2022-11-18T09:33:30;93.13;;;5.10;;
4895;SDS011;2463;49.948;8.472;2022-11-18T09:35:57;91.57;;;4.90;;
4895;SDS011;2463;49.948;8.472;2022-11-18T09:38:23;92.57;;;5.70;;
4895;SDS011;2463;49.948;8.472;2022-11-18T09:41:10;91.57;;;4.90;;
4895;SDS011;2463;49.948;8.472;2022-11-18T09:49:33;91.93;;;4.90;;
4895;SDS011;2463;49.948;8.472;2022-11-18T09:52:09;92.15;;;5.05;;
4895;SDS011;2463;49.948;8.472;2022-11-18T09:54:48;93.30;;;5.45;;
4895;SDS011;2463;49.948;8.472;2022-11-18T09:57:19;91.43;;;5.00;;
4895;SDS011;2463;49.948;8.472;2022-11-18T09:59:50;92.25;;;5.50;;
4895;SDS011;2463;49.948;8.472;2022-11-18T10:05:25;95.40;;;5.53;;
4895;SDS011;2463;49.948;8.472;2022-11-18T10:10:45;95.20;;;5.70;;
4895;SDS011;2463;49.948;8.472;2022-11-18T10:21:59;92.50;;;5.13;;
4895;SDS011;2463;49.948;8.472;2022-11-18T10:24:48;91.78;;;5.10;;
4895;SDS011;2463;49.948;8.472;2022-11-18T10:27:18;93.25;;;5.60;;
4895;SDS011;2463;49.948;8.472;2022-11-18T10:29:51;92.65;;;5.60;;
4895;SDS011;2463;49.948;8.472;2022-11-18T10:32:22;93.55;;;5.65;;
4895;SDS011;2463;49.948;8.472;2022-11-18T10:34:50;93.50;;;5.00;;
4895;SDS011;2463;49.948;8.472;2022-11-18T10:37:52;94.40;;;5.40;;
4895;SDS011;2463;49.948;8.472;2022-11-18T10:40:33;93.90;;;5.65;;
4895;SDS011;2463;49.948;8.472;2022-11-18T10:43:02;93.28;;;5.25;;
4895;SDS011;2463;49.948;8.472;2022-11-18T10:45:30;92.18;;;5.30;;
4895;SDS011;2463;49.948;8.472;2022-11-18T10:47:59;94.78;;;5.15;;
4895;SDS011;2463;49.948;8.472;2022-11-18T10:51:08;92.63;;;5.75;;
4895;SDS011;2463;49.948;8.472;2022-11-18T10:53:34;92.68;;;5.00;;
4895;SDS011;2463;49.948;8.472;2022-11-18T10:56:06;94.40;;;5.40;;
4895;SDS011;2463;49.948;8.472;2022-11-18T10:58:40;92.55;;;5.10;;
4895;SDS011;2463;49.948;8.472;2022-11-18T11:01:24;91.22;;;5.13;;
4895;SDS011;2463;49.948;8.472;2022-11-18T11:08:57;91.20;;;4.60;;
4895;SDS011;2463;49.948;8.472;2022-11-18T11:11:54;90.85;;;4.80;;
4895;SDS011;2463;49.948;8.472;2022-11-18T11:14:31;92.82;;;5.10;;
4895;SDS011;2463;49.948;8.472;2022-11-18T11:17:28;91.25;;;5.00;;
4895;SDS011;2463;49.948;8.472;2022-11-18T11:20:18;90.43;;;4.90;;
4895;SDS011;2463;49.948;8.472;2022-11-18T11:22:46;92.97;;;5.78;;
4895;SDS011;2463;49.948;8.472;2022-11-18T11:25:15;91.20;;;5.20;;
4895;SDS011;2463;49.948;8.472;2022-11-18T11:30:47;99.38;;;5.28;;
4895;SDS011;2463;49.948;8.472;2022-11-18T11:33:37;91.93;;;5.00;;
4895;SDS011;2463;49.948;8.472;2022-11-18T11:41:32;90.90;;;5.00;;
4895;SDS011;2463;49.948;8.472;2022-11-18T11:52:15;94.45;;;4.93;;
4895;SDS011;2463;49.948;8.472;2022-11-18T11:58:08;91.38;;;4.93;;
4895;SDS011;2463;49.948;8.472;2022-11-18T12:01:01;90.72;;;4.68;;
4895;SDS011;2463;49.948;8.472;2022-11-18T12:03:45;90.82;;;4.75;;
4895;SDS011;2463;49.948;8.472;2022-11-18T12:06:17;92.50;;;4.72;;
4895;SDS011;2463;49.948;8.472;2022-11-18T12:08:49;92.63;;;5.00;;
4895;SDS011;2463;49.948;8.472;2022-11-18T12:11:52;93.32;;;5.80;;
4895;SDS011;2463;49.948;8.472;2022-11-18T12:14:30;90.35;;;4.75;;
4895;SDS011;2463;49.948;8.472;2022-11-18T12:17:19;91.07;;;4.40;;
4895;SDS011;2463;49.948;8.472;2022-11-18T12:19:50;91.47;;;4.80;;
4895;SDS011;2463;49.948;8.472;2022-11-18T12:22:16;90.75;;;5.07;;
4895;SDS011;2463;49.948;8.472;2022-11-18T12:24:43;92.00;;;4.60;;
4895;SDS011;2463;49.948;8.472;2022-11-18T12:30:00;91.40;;;5.38;;
4895;SDS011;2463;49.948;8.472;2022-11-18T12:32:35;90.60;;;4.88;;
4895;SDS011;2463;49.948;8.472;2022-11-18T12:43:03;87.78;;;3.90;;
4895;SDS011;2463;49.948;8.472;2022-11-18T12:46:55;88.35;;;3.53;;
4895;SDS011;2463;49.948;8.472;2022-11-18T12:51:48;87.15;;;3.97;;
4895;SDS011;2463;49.948;8.472;2022-11-18T12:54:35;87.68;;;3.80;;
4895;SDS011;2463;49.948;8.472;2022-11-18T12:57:12;85.32;;;3.40;;
4895;SDS011;2463;49.948;8.472;2022-11-18T12:59:44;86.97;;;3.50;;
4895;SDS011;2463;49.948;8.472;2022-11-18T13:05:01;88.90;;;3.78;;
4895;SDS011;2463;49.948;8.472;2022-11-18T13:07:37;90.03;;;3.58;;
4895;SDS011;2463;49.948;8.472;2022-11-18T13:10:27;88.65;;;3.60;;
4895;SDS011;2463;49.948;8.472;2022-11-18T13:12:57;87.28;;;3.40;;
4895;SDS011;2463;49.948;8.472;2022-11-18T13:15:24;87.25;;;3.70;;
4895;SDS011;2463;49.948;8.472;2022-11-18T13:20:55;86.70;;;4.07;;
4895;SDS011;2463;49.948;8.472;2022-11-18T13:29:00;84.28;;;3.28;;
4895;SDS011;2463;49.948;8.472;2022-11-18T13:31:37;83.95;;;3.10;;
4895;SDS011;2463;49.948;8.472;2022-11-18T13:34:29;90.55;;;3.80;;
4895;SDS011;2463;49.948;8.472;2022-11-18T13:36:57;85.38;;;3.35;;
4895;SDS011;2463;49.948;8.472;2022-11-18T13:39:30;84.05;;;3.00;;
4895;SDS011;2463;49.948;8.472;2022-11-18T13:42:05;87.05;;;3.45;;
4895;SDS011;2463;49.948;8.472;2022-11-18T13:44:43;84.97;;;3.00;;
4895;SDS011;2463;49.948;8.472;2022-11-18T13:55:24;90.65;;;3.95;;
4895;SDS011;2463;49.948;8.472;2022-11-18T13:58:04;89.07;;;3.80;;
4895;SDS011;2463;49.948;8.472;2022-11-18T14:00:39;87.03;;;3.30;;
4895;SDS011;2463;49.948;8.472;2022-11-18T14:03:15;89.47;;;3.60;;
4895;SDS011;2463;49.948;8.472;2022-11-18T14:05:56;89.30;;;4.10;;
4895;SDS011;2463;49.948;8.472;2022-11-18T14:08:28;91.00;;;4.10;;
4895;SDS011;2463;49.948;8.472;2022-11-18T14:10:56;92.85;;;4.80;;
4895;SDS011;2463;49.948;8.472;2022-11-18T14:13:25;92.30;;;4.47;;
4895;SDS011;2463;49.948;8.472;2022-11-18T14:15:54;91.15;;;4.47;;
4895;SDS011;2463;49.948;8.472;2022-11-18T14:18:30;90.63;;;4.25;;
4895;SDS011;2463;49.948;8.472;2022-11-18T14:20:59;92.70;;;4.90;;
4895;SDS011;2463;49.948;8.472;2022-11-18T14:23:31;92.10;;;4.50;;
4895;SDS011;2463;49.948;8.472;2022-11-18T14:26:01;90.90;;;4.30;;
4895;SDS011;2463;49.948;8.472;2022-11-18T14:28:33;94.13;;;5.22;;
4895;SDS011;2463;49.948;8.472;2022-11-18T14:31:04;93.10;;;5.15;;
4895;SDS011;2463;49.948;8.472;2022-11-18T14:36:42;92.50;;;4.88;;
4895;SDS011;2463;49.948;8.472;2022-11-18T14:39:52;90.88;;;4.75;;
4895;SDS011;2463;49.948;8.472;2022-11-18T14:42:03;92.35;;;5.28;;
4895;SDS011;2463;49.948;8.472;2022-11-18T14:44:31;96.65;;;5.45;;
4895;SDS011;2463;49.948;8.472;2022-11-18T14:46:59;94.30;;;5.65;;
4895;SDS011;2463;49.948;8.472;2022-11-18T14:49:28;93.60;;;5.47;;
4895;SDS011;2463;49.948;8.472;2022-11-18T14:51:57;92.22;;;5.10;;
4895;SDS011;2463;49.948;8.472;2022-11-18T14:54:24;92.63;;;5.30;;
4895;SDS011;2463;49.948;8.472;2022-11-18T14:56:57;94.55;;;5.78;;
4895;SDS011;2463;49.948;8.472;2022-11-18T14:59:27;93.20;;;4.82;;
4895;SDS011;2463;49.948;8.472;2022-11-18T15:01:54;92.88;;;5.20;;
4895;SDS011;2463;49.948;8.472;2022-11-18T15:04:24;92.85;;;5.35;;
4895;SDS011;2463;49.948;8.472;2022-11-18T15:06:51;92.00;;;5.10;;
4895;SDS011;2463;49.948;8.472;2022-11-18T15:09:18;93.38;;;5.10;;
4895;SDS011;2463;49.948;8.472;2022-11-18T15:11:45;96.85;;;5.60;;
4895;SDS011;2463;49.948;8.472;2022-11-18T15:14:11;100.70;;;7.25;;
4895;SDS011;2463;49.948;8.472;2022-11-18T15:16:38;94.60;;;5.57;;
4895;SDS011;2463;49.948;8.472;2022-11-18T15:19:05;96.30;;;6.20;;
4895;SDS011;2463;49.948;8.472;2022-11-18T15:21:38;94.95;;;6.30;;
4895;SDS011;2463;49.948;8.472;2022-11-18T15:24:04;96.15;;;6.45;;
4895;SDS011;2463;49.948;8.472;2022-11-18T15:26:35;94.45;;;6.20;;
4895;SDS011;2463;49.948;8.472;2022-11-18T15:29:04;94.45;;;6.30;;
4895;SDS011;2463;49.948;8.472;2022-11-18T15:31:31;97.22;;;6.88;;
4895;SDS011;2463;49.948;8.472;2022-11-18T15:33:58;94.20;;;6.10;;
4895;SDS011;2463;49.948;8.472;2022-11-18T15:36:31;93.80;;;5.32;;
4895;SDS011;2463;49.948;8.472;2022-11-18T15:38:58;93.53;;;5.80;;
4895;SDS011;2463;49.948;8.472;2022-11-18T15:41:26;94.03;;;5.78;;
4895;SDS011;2463;49.948;8.472;2022-11-18T15:43:54;95.38;;;5.72;;
4895;SDS011;2463;49.948;8.472;2022-11-18T15:46:22;94.05;;;5.88;;
4895;SDS011;2463;49.948;8.472;2022-11-18T15:48:50;95.97;;;5.45;;
4895;SDS011;2463;49.948;8.472;2022-11-18T15:51:22;97.22;;;7.00;;
4895;SDS011;2463;49.948;8.472;2022-11-18T15:53:50;97.13;;;7.18;;
4895;SDS011;2463;49.948;8.472;2022-11-18T15:58:56;101.68;;;9.38;;
4895;SDS011;2463;49.948;8.472;2022-11-18T16:01:27;98.88;;;7.30;;
4895;SDS011;2463;49.948;8.472;2022-11-18T16:03:55;96.65;;;6.30;;
4895;SDS011;2463;49.948;8.472;2022-11-18T16:06:22;97.88;;;6.00;;
4895;SDS011;2463;49.948;8.472;2022-11-18T16:08:49;99.68;;;5.93;;
4895;SDS011;2463;49.948;8.472;2022-11-18T16:11:24;94.03;;;5.95;;
4895;SDS011;2463;49.948;8.472;2022-11-18T16:14:10;103.50;;;6.35;;
4895;SDS011;2463;49.948;8.472;2022-11-18T16:16:39;97.90;;;5.80;;
4895;SDS011;2463;49.948;8.472;2022-11-18T16:19:08;95.95;;;5.95;;
4895;SDS011;2463;49.948;8.472;2022-11-18T16:21:40;94.28;;;5.60;;
4895;SDS011;2463;49.948;8.472;2022-11-18T16:24:10;93.95;;;5.50;;
4895;SDS011;2463;49.948;8.472;2022-11-18T16:26:38;93.13;;;5.32;;
4895;SDS011;2463;49.948;8.472;2022-11-18T16:29:05;97.63;;;5.82;;
4895;SDS011;2463;49.948;8.472;2022-11-18T16:31:32;97.38;;;5.55;;
4895;SDS011;2463;49.948;8.472;2022-11-18T16:36:34;101.30;;;5.60;;
4895;SDS011;2463;49.948;8.472;2022-11-18T16:39:02;94.28;;;5.82;;
4895;SDS011;2463;49.948;8.472;2022-11-18T16:41:30;103.53;;;6.93;;
4895;SDS011;2463;49.948;8.472;2022-11-18T16:44:01;94.00;;;6.05;;
4895;SDS011;2463;49.948;8.472;2022-11-18T16:46:30;97.15;;;5.38;;
4895;SDS011;2463;49.948;8.472;2022-11-18T16:48:58;96.90;;;5.93;;
4895;SDS011;2463;49.948;8.472;2022-11-18T16:51:26;92.93;;;5.20;;
4895;SDS011;2463;49.948;8.472;2022-11-18T16:53:58;94.13;;;5.30;;
4895;SDS011;2463;49.948;8.472;2022-11-18T16:56:31;97.45;;;5.70;;
4895;SDS011;2463;49.948;8.472;2022-11-18T16:59:00;94.78;;;5.60;;
4895;SDS011;2463;49.948;8.472;2022-11-18T17:01:31;96.20;;;5.63;;
4895;SDS011;2463;49.948;8.472;2022-11-18T17:03:59;93.55;;;5.78;;
4895;SDS011;2463;49.948;8.472;2022-11-18T17:06:26;96.38;;;5.80;;